createdAt,value
2023-02-24T00:02:06.003Z,15.08
2023-02-24T00:04:38.624Z,14.90
2023-02-24T00:07:06.679Z,15.16
2023-02-24T00:09:34.246Z,15.29
2023-02-24T00:12:02.899Z,16.38
2023-02-24T00:14:31.828Z,15.99
2023-02-24T00:16:59.361Z,16.00
2023-02-24T00:19:27.950Z,16.25
2023-02-24T00:21:55.403Z,15.66
2023-02-24T00:24:26.147Z,15.66
2023-02-24T00:26:57.118Z,15.19
2023-02-24T00:29:25.256Z,14.85
2023-02-24T00:32:00.138Z,15.25
2023-02-24T00:34:28.931Z,14.85
2023-02-24T00:36:56.976Z,14.70
2023-02-24T00:39:28.600Z,14.87
2023-02-24T00:42:04.665Z,14.98
2023-02-24T00:44:35.627Z,15.79
2023-02-24T00:47:04.958Z,15.32
2023-02-24T00:49:34.067Z,15.17
2023-02-24T00:52:01.302Z,14.54
2023-02-24T00:54:28.856Z,14.24
2023-02-24T00:56:56.331Z,14.86
2023-02-24T00:59:26.221Z,15.04
2023-02-24T01:01:54.964Z,14.78
2023-02-24T01:04:22.652Z,14.26
2023-02-24T01:06:52.538Z,13.61
2023-02-24T01:09:20.661Z,13.17
2023-02-24T01:12:07.944Z,14.11
2023-02-24T01:14:35.700Z,13.95
2023-02-24T01:17:04.061Z,12.99
2023-02-24T01:19:32.186Z,13.80
2023-02-24T01:22:01.211Z,14.44
2023-02-24T01:24:28.994Z,14.39
2023-02-24T01:26:57.215Z,14.10
2023-02-24T01:29:27.851Z,13.59
2023-02-24T01:31:58.526Z,13.84
2023-02-24T01:34:26.927Z,13.51
2023-02-24T01:36:54.208Z,13.08
2023-02-24T01:39:21.901Z,13.88
2023-02-24T01:41:50.350Z,14.56
2023-02-24T01:44:18.176Z,13.73
2023-02-24T01:46:46.257Z,13.89
2023-02-24T01:49:15.867Z,13.41
2023-02-24T01:51:49.624Z,13.85
2023-02-24T01:54:17.626Z,14.31
2023-02-24T01:56:46.996Z,14.13
2023-02-24T01:59:16.059Z,13.82
2023-02-24T02:01:43.662Z,14.66
2023-02-24T02:04:14.316Z,14.74
2023-02-24T02:06:41.665Z,14.36
2023-02-24T02:09:09.871Z,15.10
2023-02-24T02:11:37.498Z,14.96
2023-02-24T02:14:05.718Z,14.53
2023-02-24T02:16:36.172Z,14.44
2023-02-24T02:19:22.829Z,14.88
2023-02-24T02:22:09.002Z,14.46
2023-02-24T02:24:56.442Z,14.71
2023-02-24T02:27:29.422Z,14.63
2023-02-24T02:30:02.006Z,14.38
2023-02-24T02:32:41.549Z,14.02
2023-02-24T02:35:20.976Z,13.50
2023-02-24T02:37:59.148Z,13.05
2023-02-24T02:40:27.788Z,13.26
2023-02-24T02:42:57.856Z,13.81
2023-02-24T02:45:29.169Z,14.59
2023-02-24T02:48:04.507Z,14.67
2023-02-24T02:50:46.214Z,14.19
2023-02-24T02:53:14.863Z,14.91
2023-02-24T02:55:43.905Z,14.73
2023-02-24T02:58:14.873Z,14.43
2023-02-24T03:00:54.285Z,13.46
2023-02-24T03:03:26.230Z,14.46
2023-02-24T03:05:57.495Z,13.96
2023-02-24T03:08:25.944Z,14.35
2023-02-24T03:10:53.706Z,14.95
2023-02-24T03:13:22.405Z,14.62
2023-02-24T03:15:50.526Z,13.87
2023-02-24T03:18:20.242Z,14.23
2023-02-24T03:20:51.739Z,14.41
2023-02-24T03:23:20.476Z,15.51
2023-02-24T03:25:49.386Z,14.81
2023-02-24T03:28:22.768Z,14.44
2023-02-24T03:30:57.987Z,15.03
2023-02-24T03:33:29.795Z,14.78
2023-02-24T03:36:01.710Z,15.08
2023-02-24T03:38:30.604Z,15.00
2023-02-24T03:40:59.423Z,13.82
2023-02-24T03:43:28.456Z,13.73
2023-02-24T03:45:56.142Z,14.15
2023-02-24T03:48:24.979Z,14.41
2023-02-24T03:50:53.283Z,14.73
2023-02-24T03:53:39.965Z,14.55
2023-02-24T03:56:13.294Z,14.40
2023-02-24T03:58:53.951Z,15.43
2023-02-24T04:01:31.017Z,15.20
2023-02-24T04:04:00.664Z,14.22
2023-02-24T04:06:36.573Z,14.71
2023-02-24T04:09:07.220Z,14.19
2023-02-24T04:11:39.223Z,14.36
2023-02-24T04:14:08.629Z,14.94
2023-02-24T04:16:44.459Z,13.80
2023-02-24T04:19:14.191Z,14.62
2023-02-24T04:21:43.137Z,14.13
2023-02-24T04:24:15.292Z,13.81
2023-02-24T04:26:44.783Z,13.63
2023-02-24T04:29:17.539Z,13.37
2023-02-24T04:31:46.411Z,13.59
2023-02-24T04:34:20.005Z,12.75
2023-02-24T04:36:49.849Z,12.35
2023-02-24T04:39:20.964Z,13.02
2023-02-24T04:41:49.849Z,13.57
2023-02-24T04:44:21.142Z,13.41
2023-02-24T04:46:51.908Z,13.24
2023-02-24T04:49:19.289Z,13.30
2023-02-24T04:51:46.525Z,13.63
2023-02-24T04:54:17.463Z,13.73
2023-02-24T04:56:47.952Z,13.36
2023-02-24T04:59:15.559Z,13.02
2023-02-24T05:01:44.223Z,13.11
2023-02-24T05:04:12.364Z,12.89
2023-02-24T05:06:43.791Z,13.53
2023-02-24T05:09:14.496Z,14.67
2023-02-24T05:11:42.586Z,14.09
2023-02-24T05:14:10.656Z,14.29
2023-02-24T05:16:37.978Z,13.56
2023-02-24T05:19:24.301Z,13.59
2023-02-24T05:21:51.672Z,13.76
2023-02-24T05:24:19.370Z,14.35
2023-02-24T05:26:46.800Z,14.61
2023-02-24T05:29:14.270Z,14.49
2023-02-24T05:31:41.918Z,14.19
2023-02-24T05:34:09.330Z,14.58
2023-02-24T05:36:40.337Z,14.23
2023-02-24T05:39:12.060Z,14.51
2023-02-24T05:41:41.730Z,14.58
2023-02-24T05:44:11.710Z,13.85
2023-02-24T05:46:44.618Z,14.13
2023-02-24T05:49:14.348Z,13.86
2023-02-24T05:51:43.563Z,14.44
2023-02-24T05:54:13.146Z,14.54
2023-02-24T05:56:43.874Z,14.52
2023-02-24T05:59:12.455Z,14.42
2023-02-24T06:01:45.595Z,14.63
2023-02-24T06:04:21.060Z,14.18
2023-02-24T06:06:55.004Z,14.64
2023-02-24T06:09:23.385Z,14.65
2023-02-24T06:11:50.931Z,14.24
2023-02-24T06:14:18.416Z,14.20
2023-02-24T06:16:45.955Z,14.67
2023-02-24T06:19:13.706Z,14.35
2023-02-24T06:21:41.949Z,14.54
2023-02-24T06:24:18.564Z,14.57
2023-02-24T06:26:46.560Z,14.46
2023-02-24T06:29:15.038Z,14.54
2023-02-24T06:31:43.126Z,14.39
2023-02-24T06:34:10.875Z,13.94
2023-02-24T06:36:38.374Z,13.99
2023-02-24T06:39:08.176Z,13.54
2023-02-24T06:41:35.699Z,13.83
2023-02-24T06:44:03.268Z,14.54
2023-02-24T06:46:31.179Z,14.91
2023-02-24T06:48:58.356Z,14.27
2023-02-24T06:51:30.165Z,14.42
2023-02-24T06:53:59.805Z,14.56
2023-02-24T06:56:27.433Z,14.90
2023-02-24T06:58:56.356Z,14.88
2023-02-24T07:01:25.793Z,14.98
2023-02-24T07:04:02.584Z,15.22
2023-02-24T07:06:31.515Z,14.96
2023-02-24T07:08:59.140Z,15.08
2023-02-24T07:11:28.216Z,15.21
2023-02-24T07:13:57.526Z,15.47
2023-02-24T07:16:25.780Z,15.52
2023-02-24T07:18:53.742Z,15.72
2023-02-24T07:21:23.554Z,15.34
2023-02-24T07:23:58.901Z,15.56
2023-02-24T07:26:27.826Z,15.48
2023-02-24T07:28:55.432Z,16.22
2023-02-24T07:31:24.465Z,15.68
2023-02-24T07:33:56.784Z,15.67
2023-02-24T07:36:24.454Z,15.89
2023-02-24T07:38:52.438Z,16.08
2023-02-24T07:41:22.685Z,15.88
2023-02-24T07:43:53.590Z,15.94
2023-02-24T07:46:25.028Z,16.34
2023-02-24T07:48:52.738Z,16.25
2023-02-24T07:51:22.053Z,15.33
2023-02-24T07:53:53.043Z,16.89
2023-02-24T07:56:26.901Z,16.64
2023-02-24T07:58:59.264Z,16.44
2023-02-24T08:01:28.237Z,15.92
2023-02-24T08:03:57.394Z,15.63
2023-02-24T08:06:27.513Z,16.22
2023-02-24T08:08:58.411Z,15.64
2023-02-24T08:11:35.543Z,16.35
2023-02-24T08:14:03.346Z,17.09
2023-02-24T08:16:39.507Z,17.14
2023-02-24T08:19:07.388Z,15.92
2023-02-24T08:21:38.314Z,14.21
2023-02-24T08:24:06.016Z,13.73
2023-02-24T08:26:37.308Z,13.23
2023-02-24T08:29:07.449Z,11.94
2023-02-24T08:31:35.041Z,11.70
2023-02-24T08:34:02.287Z,10.82
2023-02-24T08:36:29.759Z,10.73
2023-02-24T08:38:59.765Z,10.84
2023-02-24T08:41:44.861Z,12.33
2023-02-24T08:44:12.811Z,11.68
2023-02-24T08:46:40.308Z,11.77
2023-02-24T08:49:10.959Z,12.08
2023-02-24T08:51:43.756Z,11.20
2023-02-24T08:54:15.531Z,11.85
2023-02-24T08:56:55.986Z,11.95
2023-02-24T08:59:49.697Z,11.75
2023-02-24T09:02:18.638Z,12.27
2023-02-24T09:04:46.741Z,12.41
2023-02-24T09:07:21.624Z,13.32
2023-02-24T09:09:49.322Z,12.44
2023-02-24T09:12:24.544Z,12.77
2023-02-24T09:14:55.551Z,12.90
2023-02-24T09:17:40.222Z,12.90
2023-02-24T09:20:27.191Z,14.30
2023-02-24T09:23:00.662Z,13.26
2023-02-24T09:25:47.130Z,13.38
2023-02-24T09:28:18.848Z,13.09
2023-02-24T09:30:56.411Z,12.98
2023-02-24T09:33:26.877Z,12.76
2023-02-24T09:36:20.222Z,12.72
2023-02-24T09:39:00.748Z,12.92
2023-02-24T09:41:32.248Z,12.68
2023-02-24T09:44:07.476Z,12.63
2023-02-24T09:46:42.813Z,12.87
2023-02-24T09:49:17.248Z,12.49
2023-02-24T09:51:45.045Z,13.63
2023-02-24T09:54:19.132Z,13.53
2023-02-24T09:57:08.344Z,13.49
2023-02-24T09:59:35.870Z,13.75
2023-02-24T10:02:12.163Z,13.59
2023-02-24T10:04:49.579Z,13.36
2023-02-24T10:07:18.516Z,13.88
2023-02-24T10:10:11.179Z,13.94
2023-02-24T10:12:40.359Z,14.02
2023-02-24T10:15:19.034Z,13.73
2023-02-24T10:17:49.459Z,13.38
2023-02-24T10:20:31.184Z,13.37
2023-02-24T10:23:05.663Z,13.99
2023-02-24T10:25:54.020Z,13.81
2023-02-24T10:28:35.920Z,13.76
2023-02-24T10:31:27.656Z,14.45
2023-02-24T10:34:06.456Z,13.90
2023-02-24T10:36:35.649Z,13.66
2023-02-24T10:39:25.817Z,13.51
2023-02-24T10:42:16.415Z,13.51
2023-02-24T10:45:01.290Z,14.04
2023-02-24T10:47:32.833Z,14.06
2023-02-24T10:50:01.267Z,15.08
2023-02-24T10:52:50.541Z,14.38
2023-02-24T10:55:45.481Z,15.72
2023-02-24T10:58:38.178Z,15.51
2023-02-24T11:01:18.183Z,15.50
2023-02-24T11:04:12.508Z,15.95
2023-02-24T11:06:39.939Z,16.17
2023-02-24T11:09:31.898Z,15.88
2023-02-24T11:12:25.311Z,15.92
2023-02-24T11:15:17.820Z,14.98
2023-02-24T11:17:57.535Z,15.56
2023-02-24T11:20:49.799Z,15.78
2023-02-24T11:23:25.224Z,16.06
2023-02-24T11:25:58.272Z,16.21
2023-02-24T11:28:56.076Z,17.05
2023-02-24T11:31:39.860Z,17.26
2023-02-24T11:34:12.817Z,17.00
2023-02-24T11:36:44.868Z,17.58
2023-02-24T11:39:21.228Z,16.73
2023-02-24T11:41:53.241Z,16.37
2023-02-24T11:44:23.332Z,16.45
2023-02-24T11:46:57.193Z,16.48
2023-02-24T11:49:53.358Z,16.89
2023-02-24T11:52:28.377Z,16.06
2023-02-24T11:54:57.084Z,16.98
2023-02-24T11:57:34.402Z,16.18
2023-02-24T12:00:05.046Z,15.84
2023-02-24T12:02:39.898Z,16.54
2023-02-24T12:05:13.721Z,16.27
2023-02-24T12:07:44.794Z,15.90
2023-02-24T12:10:22.134Z,16.72
2023-02-24T12:13:11.794Z,16.77
2023-02-24T12:15:54.747Z,16.53
2023-02-24T12:18:27.710Z,16.53
2023-02-24T12:21:21.315Z,16.42
2023-02-24T12:23:51.263Z,15.96
2023-02-24T12:26:27.341Z,16.54
2023-02-24T12:29:03.753Z,16.51
2023-02-24T12:31:57.237Z,15.59
2023-02-24T12:34:43.505Z,15.72
2023-02-24T12:37:32.264Z,16.15
2023-02-24T12:40:14.693Z,16.20
2023-02-24T12:42:42.514Z,16.50
2023-02-24T12:45:16.013Z,15.52
2023-02-24T12:47:53.257Z,16.56
2023-02-24T12:50:26.281Z,16.31
2023-02-24T12:52:56.636Z,15.87
2023-02-24T12:55:27.634Z,16.19
2023-02-24T12:57:57.872Z,15.71
2023-02-24T13:00:33.942Z,14.97
2023-02-24T13:03:06.781Z,15.24
2023-02-24T13:05:36.969Z,15.21
2023-02-24T13:08:07.287Z,14.53
2023-02-24T13:10:34.460Z,14.66
2023-02-24T13:13:04.830Z,15.25
2023-02-24T13:15:34.851Z,15.25
2023-02-24T13:18:02.089Z,15.12
2023-02-24T13:20:33.821Z,15.11
2023-02-24T13:23:01.873Z,15.84
2023-02-24T13:25:37.089Z,15.51
2023-02-24T13:28:06.232Z,14.97
2023-02-24T13:30:42.874Z,14.85
2023-02-24T13:33:19.457Z,15.12
2023-02-24T13:35:47.661Z,15.08
2023-02-24T13:38:24.406Z,14.54
2023-02-24T13:40:51.647Z,14.80
2023-02-24T13:43:27.141Z,15.26
2023-02-24T13:46:01.132Z,16.57
2023-02-24T13:48:42.479Z,17.36
2023-02-24T13:51:19.194Z,16.15
2023-02-24T13:53:52.027Z,16.04
2023-02-24T13:56:28.470Z,16.12
2023-02-24T13:58:55.933Z,15.52
2023-02-24T14:01:23.662Z,15.11
2023-02-24T14:04:03.185Z,14.94
2023-02-24T14:06:32.779Z,14.82
2023-02-24T14:09:02.606Z,14.91
2023-02-24T14:11:31.262Z,15.59
2023-02-24T14:13:58.472Z,15.71
2023-02-24T14:16:29.935Z,16.46
2023-02-24T14:18:59.285Z,16.05
2023-02-24T14:21:27.596Z,15.60
2023-02-24T14:24:02.092Z,15.99
2023-02-24T14:26:30.590Z,16.50
2023-02-24T14:29:00.555Z,16.16
2023-02-24T14:31:28.408Z,15.53
2023-02-24T14:33:58.177Z,15.40
2023-02-24T14:36:26.690Z,15.80
2023-02-24T14:39:14.113Z,15.86
2023-02-24T14:41:42.336Z,16.55
2023-02-24T14:44:28.737Z,16.33
2023-02-24T14:46:59.985Z,16.16
2023-02-24T14:49:28.583Z,15.49
2023-02-24T14:52:07.143Z,16.56
2023-02-24T14:54:34.534Z,16.28
2023-02-24T14:57:02.148Z,16.30
2023-02-24T14:59:34.449Z,16.54
2023-02-24T15:02:02.891Z,16.01
2023-02-24T15:04:42.445Z,16.29
2023-02-24T15:07:17.570Z,15.70
2023-02-24T15:09:47.022Z,15.37
2023-02-24T15:12:24.375Z,15.59
2023-02-24T15:14:54.025Z,16.64
2023-02-24T15:17:21.794Z,16.16
2023-02-24T15:19:54.474Z,16.04
2023-02-24T15:22:24.036Z,16.41
2023-02-24T15:25:11.988Z,16.84
2023-02-24T15:27:49.259Z,17.13
2023-02-24T15:30:25.472Z,16.25
2023-02-24T15:32:59.974Z,16.52
2023-02-24T15:35:27.303Z,15.51
2023-02-24T15:37:55.070Z,15.33
2023-02-24T15:40:24.071Z,14.72
2023-02-24T15:42:52.733Z,14.92
2023-02-24T15:45:25.643Z,15.01
2023-02-24T15:47:54.549Z,14.47
2023-02-24T15:50:22.639Z,14.51
2023-02-24T15:52:50.533Z,14.35
2023-02-24T15:55:18.890Z,14.20
2023-02-24T15:57:47.431Z,14.12
2023-02-24T16:00:15.974Z,14.01
2023-02-24T16:02:43.793Z,14.48
2023-02-24T16:05:14.757Z,14.11
2023-02-24T16:07:43.814Z,14.35
2023-02-24T16:10:15.213Z,14.46
2023-02-24T16:13:09.094Z,14.18
2023-02-24T16:15:42.876Z,14.26
2023-02-24T16:18:20.948Z,14.11
2023-02-24T16:20:56.748Z,14.22
2023-02-24T16:23:27.682Z,14.01
2023-02-24T16:25:57.067Z,14.08
2023-02-24T16:28:25.097Z,14.30
2023-02-24T16:30:53.313Z,14.27
2023-02-24T16:33:23.555Z,14.23
2023-02-24T16:35:53.642Z,14.33
2023-02-24T16:38:26.752Z,14.47
2023-02-24T16:40:55.067Z,14.83
2023-02-24T16:43:23.140Z,14.33
2023-02-24T16:45:51.306Z,14.01
2023-02-24T16:48:20.021Z,14.32
2023-02-24T16:50:47.922Z,15.28
2023-02-24T16:53:19.475Z,14.58
2023-02-24T16:55:47.665Z,14.50
2023-02-24T16:58:16.051Z,14.79
2023-02-24T17:00:43.946Z,15.07
2023-02-24T17:03:22.051Z,15.43
2023-02-24T17:05:50.295Z,15.86
2023-02-24T17:08:19.478Z,16.24
2023-02-24T17:10:46.902Z,16.67
2023-02-24T17:13:16.181Z,18.02
2023-02-24T17:15:44.113Z,18.20
2023-02-24T17:18:12.083Z,17.57
2023-02-24T17:20:41.289Z,18.34
2023-02-24T17:23:09.762Z,18.77
2023-02-24T17:25:37.441Z,17.71
2023-02-24T17:28:07.330Z,17.66
2023-02-24T17:30:36.567Z,16.96
2023-02-24T17:33:04.270Z,17.75
2023-02-24T17:35:32.037Z,17.93
2023-02-24T17:38:00.386Z,17.28
2023-02-24T17:40:27.671Z,16.46
2023-02-24T17:42:56.051Z,16.16
2023-02-24T17:45:23.604Z,15.89
2023-02-24T17:47:52.754Z,17.55
2023-02-24T17:50:20.860Z,16.89
2023-02-24T17:52:50.014Z,15.75
2023-02-24T17:55:17.976Z,16.18
2023-02-24T17:57:47.893Z,15.99
2023-02-24T18:00:16.889Z,15.68
2023-02-24T18:02:46.146Z,15.13
2023-02-24T18:05:14.495Z,14.71
2023-02-24T18:07:42.321Z,13.95
2023-02-24T18:10:11.241Z,13.74
2023-02-24T18:12:39.086Z,14.29
2023-02-24T18:15:10.491Z,16.38
2023-02-24T18:17:38.834Z,17.09
2023-02-24T18:20:07.798Z,17.09
2023-02-24T18:22:37.342Z,17.04
2023-02-24T18:25:06.658Z,16.66
2023-02-24T18:27:34.971Z,17.26
2023-02-24T18:30:03.215Z,16.43
2023-02-24T18:32:34.529Z,15.62
2023-02-24T18:35:02.633Z,15.61
2023-02-24T18:37:31.634Z,13.76
2023-02-24T18:40:02.147Z,13.90
2023-02-24T18:42:30.000Z,13.14
2023-02-24T18:44:58.482Z,13.04
2023-02-24T18:47:26.682Z,13.43
2023-02-24T18:49:55.214Z,12.88
2023-02-24T18:52:24.777Z,12.77
2023-02-24T18:54:53.584Z,12.31
2023-02-24T18:57:22.225Z,12.56
2023-02-24T18:59:50.715Z,13.04
2023-02-24T19:02:18.896Z,12.68
2023-02-24T19:04:47.127Z,12.46
2023-02-24T19:07:14.836Z,12.50
2023-02-24T19:09:43.899Z,12.94
2023-02-24T19:12:12.611Z,12.92
2023-02-24T19:14:41.036Z,13.19
2023-02-24T19:17:09.409Z,12.75
2023-02-24T19:19:37.426Z,12.81
2023-02-24T19:22:05.922Z,12.95
2023-02-24T19:24:34.714Z,12.18
2023-02-24T19:27:03.045Z,12.05
2023-02-24T19:29:31.557Z,11.99
2023-02-24T19:32:00.645Z,12.47
2023-02-24T19:34:28.883Z,13.41
2023-02-24T19:37:01.229Z,13.88
2023-02-24T19:39:30.805Z,12.61
2023-02-24T19:41:58.976Z,11.89
2023-02-24T19:44:26.913Z,12.02
2023-02-24T19:46:57.107Z,12.23
2023-02-24T19:49:25.792Z,12.20
2023-02-24T19:51:55.102Z,12.05
2023-02-24T19:54:23.889Z,12.00
2023-02-24T19:56:52.611Z,12.82
2023-02-24T19:59:21.982Z,12.61
2023-02-24T20:01:52.166Z,12.47
2023-02-24T20:04:21.510Z,11.84
2023-02-24T20:06:51.623Z,11.71
2023-02-24T20:09:23.569Z,11.50
2023-02-24T20:11:54.381Z,11.81
2023-02-24T20:14:22.798Z,11.64
2023-02-24T20:16:52.664Z,11.31
2023-02-24T20:19:21.094Z,11.87
2023-02-24T20:21:49.038Z,11.78
2023-02-24T20:24:20.915Z,11.46
2023-02-24T20:26:50.473Z,11.52
2023-02-24T20:29:21.462Z,11.38
2023-02-24T20:31:50.148Z,11.15
2023-02-24T20:34:19.571Z,11.48
2023-02-24T20:36:47.811Z,11.76
2023-02-24T20:39:15.971Z,11.18
2023-02-24T20:41:45.447Z,11.57
2023-02-24T20:44:14.402Z,11.46
2023-02-24T20:46:42.915Z,11.01
2023-02-24T20:49:13.135Z,10.90
2023-02-24T20:51:41.743Z,10.87
2023-02-24T20:54:13.304Z,11.10
2023-02-24T20:56:43.625Z,11.08
2023-02-24T20:59:13.463Z,11.04
2023-02-24T21:01:42.145Z,11.45
2023-02-24T21:04:12.047Z,11.50
2023-02-24T21:06:40.016Z,10.97
2023-02-24T21:09:09.826Z,11.24
2023-02-24T21:11:37.722Z,11.13
2023-02-24T21:14:06.336Z,11.84
2023-02-24T21:16:37.406Z,12.29
2023-02-24T21:19:05.024Z,14.62
2023-02-24T21:21:32.757Z,14.81
2023-02-24T21:24:00.792Z,15.51
2023-02-24T21:26:29.843Z,15.44
2023-02-24T21:28:58.694Z,14.79
2023-02-24T21:31:27.455Z,15.18
2023-02-24T21:33:55.582Z,16.09
2023-02-24T21:36:26.707Z,15.39
2023-02-24T21:38:54.927Z,15.84
2023-02-24T21:41:23.914Z,16.33
2023-02-24T21:43:52.617Z,17.20
2023-02-24T21:46:20.362Z,17.17
2023-02-24T21:48:48.162Z,16.79
2023-02-24T21:51:15.398Z,15.97
2023-02-24T21:53:44.499Z,16.05
2023-02-24T21:56:18.660Z,15.85
2023-02-24T21:58:59.330Z,14.66
2023-02-24T22:01:33.537Z,15.65
2023-02-24T22:04:02.771Z,15.72
2023-02-24T22:06:31.721Z,14.07
2023-02-24T22:08:59.725Z,15.42
2023-02-24T22:11:27.304Z,16.70
2023-02-24T22:13:54.467Z,13.90
2023-02-24T22:16:22.584Z,14.31
2023-02-24T22:18:50.841Z,14.70
2023-02-24T22:21:19.062Z,14.48
2023-02-24T22:23:46.923Z,15.14
2023-02-24T22:26:14.778Z,14.85
2023-02-24T22:28:42.677Z,15.67
2023-02-24T22:31:10.543Z,15.49
2023-02-24T22:33:40.944Z,15.40
2023-02-24T22:36:18.554Z,15.45
2023-02-24T22:38:46.101Z,15.17
2023-02-24T22:41:15.112Z,15.30
2023-02-24T22:43:42.513Z,15.89
2023-02-24T22:46:14.151Z,15.01
2023-02-24T22:48:41.442Z,15.05
2023-02-24T22:51:09.470Z,15.02
2023-02-24T22:53:37.817Z,15.02
2023-02-24T22:56:05.557Z,15.22
2023-02-24T22:58:32.834Z,16.18
2023-02-24T23:01:00.345Z,15.43
2023-02-24T23:03:30.729Z,15.13
2023-02-24T23:05:59.335Z,13.60
2023-02-24T23:08:27.722Z,14.29
2023-02-24T23:10:56.521Z,14.64
2023-02-24T23:13:23.768Z,13.97
2023-02-24T23:15:51.303Z,14.61
2023-02-24T23:18:18.532Z,15.16
2023-02-24T23:20:45.714Z,15.82
2023-02-24T23:23:13.185Z,15.17
2023-02-24T23:25:42.125Z,14.96
2023-02-24T23:28:09.555Z,14.83
2023-02-24T23:30:40.329Z,14.74
2023-02-24T23:33:08.612Z,14.79
2023-02-24T23:35:35.840Z,14.22
2023-02-24T23:38:03.341Z,11.52
2023-02-24T23:40:44.363Z,10.53
2023-02-24T23:43:16.921Z,11.06
2023-02-24T23:45:44.436Z,10.23
2023-02-24T23:48:12.287Z,10.50
2023-02-24T23:50:40.598Z,9.90
2023-02-24T23:53:07.933Z,10.13
2023-02-24T23:55:35.704Z,10.22
2023-02-24T23:58:03.465Z,10.29
